Terminal Aerodrome Forecast
Issued by NWS Central Illinois

Home | Current Version | Previous Version | Text Only | Print | Product List | Glossary On
Versions: 1 2 3 4 5 6 7 8 9 10 11 12
000
FTUS43 KILX 030524
TAFSPI
TAF
KSPI 030524Z 0306/0406 23007KT P6SM SCT090
     FM031200 32008KT P6SM SCT090
     FM040100 VRB03KT P6SM SKC=

USA.gov is the U.S. government's official web portal to all federal, state and local government web resources and services.